Time;durP1;ratioP1;P1;durP2;ratioP2;P2;SDS_P1;SDS_P2;PMS_P1;PMS_P2;Temp;Humidity;BMP_temperature;BMP_pressure;BME280_temperature;BME280_humidity;BME280_pressure;Samples;Min_cycle;Max_cycle;Signal;HPM_P1;HPM_P2
2021/12/11 05:17:37;;;;;;;;;;;;;;;1.01;100.00;97157.06;5990873;23;19922;31
2021/12/11 05:20:06;;;;;;;;;;;;;;;1.05;100.00;97164.22;4855930;29;19939;-67
2021/12/11 05:22:33;;;;;;;;;;;;;;;1.07;100.00;97163.88;4869587;29;19943;-67
2021/12/11 05:25:00;;;;;;;;;;;;;;;1.13;100.00;97167.91;4847098;29;19937;-68
2021/12/11 05:27:28;;;;;;;;;;;;;;;1.15;100.00;97163.63;4856541;29;19932;-67
2021/12/11 05:29:55;;;;;;;;;;;;;;;1.17;100.00;97168.78;4853731;29;19932;-67
2021/12/11 05:32:25;;;;;;;;;;;;;;;1.17;100.00;97174.28;4851866;29;19971;-67
2021/12/11 05:34:53;;;;;;;;;;;;;;;1.18;100.00;97171.16;4848572;29;19932;-67
2021/12/11 05:37:21;;;;;;;;;;;;;;;1.21;100.00;97167.69;4862762;29;19932;-67
2021/12/11 05:39:49;;;;;;;;;;;;;;;1.20;100.00;97182.59;4861822;29;19935;-67
2021/12/11 05:42:19;;;;;;;;;;;;;;;1.18;100.00;97176.69;4848560;29;20233;-67
2021/12/11 05:44:46;;;;;;;;;;;;;;;1.21;100.00;97175.94;4848433;29;19940;-68
2021/12/11 05:47:14;;;;;;;;;;;;;;;1.24;100.00;97175.22;4857220;29;19948;-68
2021/12/11 05:49:44;;;;;;;;;;;;;;;1.24;100.00;97177.19;4862484;29;20333;-68
2021/12/11 05:52:11;;;;;;;;;;;;;;;1.27;100.00;97181.97;4861112;29;19932;-68
2021/12/11 05:54:40;;;;;;;;;;;;;;;1.29;100.00;97185.16;4849099;29;19939;-68
2021/12/11 05:57:11;;;;;;;;;;;;;;;1.33;100.00;97195.06;4847890;29;20238;-67
2021/12/11 05:59:40;;;;;;;;;;;;;;;1.40;100.00;97201.84;4855828;29;19932;-67
2021/12/11 06:02:07;;;;;;;;;;;;;;;1.42;100.00;97194.81;4860135;29;19932;-67
2021/12/11 06:04:36;;;;;;;;;;;;;;;1.43;100.00;97198.38;4861576;29;20004;-67
2021/12/11 06:07:05;;;;;;;;;;;;;;;1.44;100.00;97194.47;4848218;29;19932;-67
2021/12/11 06:09:33;;;;;;;;;;;;;;;1.46;100.00;97205.91;4850829;29;19936;-67
2021/12/11 06:12:02;;;;;;;;;;;;;;;1.40;100.00;97216.44;4857702;29;20354;-67
2021/12/11 06:14:30;;;;;;;;;;;;;;;1.41;100.00;97214.47;4855051;29;19932;-67
2021/12/11 06:16:59;;;;;;;;;;;;;;;1.40;100.00;97216.44;4853057;29;20340;-67
2021/12/11 06:19:28;;;;;;;;;;;;;;;1.35;100.00;97216.72;4870259;29;20178;-67
2021/12/11 06:21:56;;;;;;;;;;;;;;;1.34;100.00;97226.16;4877862;29;20313;-67
2021/12/11 06:24:24;;;;;;;;;;;;;;;1.34;100.00;97237.94;4862685;29;19927;-67
2021/12/11 06:26:52;;;;;;;;;;;;;;;1.34;100.00;97234.44;4872525;29;19935;-67
2021/12/11 06:29:19;;;;;;;;;;;;;;;1.41;100.00;97242.03;4875460;29;20220;-67
2021/12/11 06:31:47;;;;;;;;;;;;;;;1.38;100.00;97251.00;4876012;29;19936;-67
2021/12/11 06:34:15;;;;;;;;;;;;;;;1.36;100.00;97251.38;4879215;29;20233;-67
2021/12/11 06:36:43;;;;;;;;;;;;;;;1.34;100.00;97245.44;4877690;29;19935;-67
2021/12/11 06:39:13;;;;;;;;;;;;;;;1.33;100.00;97252.09;4868353;29;19939;-67
2021/12/11 06:41:41;;;;;;;;;;;;;;;1.26;100.00;97263.78;4868359;29;19928;-67
2021/12/11 06:44:10;;;;;;;;;;;;;;;1.12;100.00;97273.69;4878823;29;19935;-68
2021/12/11 06:46:38;;;;;;;;;;;;;;;1.12;100.00;97263.50;4867966;29;20224;-67
2021/12/11 06:49:05;;;;;;;;;;;;;;;1.15;100.00;97262.75;4876144;29;19939;-67
2021/12/11 06:51:33;;;;;;;;;;;;;;;1.18;100.00;97266.72;4869927;29;19939;-67
2021/12/11 06:54:05;;;;;;;;;;;;;;;1.22;100.00;97273.13;4878767;29;20241;-67
2021/12/11 06:56:33;;;;;;;;;;;;;;;1.28;100.00;97277.97;4869234;29;20237;-67
2021/12/11 06:59:01;;;;;;;;;;;;;;;1.36;100.00;97289.94;4872594;29;20313;-67
2021/12/11 07:01:28;;;;;;;;;;;;;;;1.37;100.00;97280.50;4883373;29;19943;-67
2021/12/11 07:03:57;;;;;;;;;;;;;;;1.47;100.00;97287.41;4887669;29;19939;-67
2021/12/11 07:06:25;;;;;;;;;;;;;;;1.53;100.00;97281.22;4880487;29;20190;-67
2021/12/11 07:08:53;;;;;;;;;;;;;;;1.59;100.00;97293.53;4880045;29;19932;-67
2021/12/11 07:11:22;;;;;;;;;;;;;;;1.69;100.00;97290.19;4879450;29;19932;-67
2021/12/11 07:13:49;;;;;;;;;;;;;;;1.77;100.00;97297.44;4880072;29;20297;-67
2021/12/11 07:16:16;;;;;;;;;;;;;;;1.82;100.00;97304.63;4881192;29;19932;-67
2021/12/11 07:18:44;;;;;;;;;;;;;;;1.84;100.00;97308.59;4883141;29;20301;-67
2021/12/11 07:21:12;;;;;;;;;;;;;;;2.05;100.00;97310.16;4883514;29;19939;-67
2021/12/11 07:23:45;;;;;;;;;;;;;;;2.64;100.00;97307.66;4871889;29;20206;-67
2021/12/11 07:26:16;;;;;;;;;;;;;;;3.58;100.00;97314.88;4886450;29;20225;-67
2021/12/11 07:28:46;;;;;;;;;;;;;;;4.25;100.00;97318.41;4898833;29;19932;-67
2021/12/11 07:31:13;;;;;;;;;;;;;;;5.25;100.00;97319.63;4867186;29;19939;-67
2021/12/11 07:33:41;;;;;;;;;;;;;;;5.99;100.00;97335.06;4854261;29;19932;-67
2021/12/11 07:36:08;;;;;;;;;;;;;;;6.97;100.00;97339.97;4876172;29;20307;-67
2021/12/11 07:38:36;;;;;;;;;;;;;;;7.86;100.00;97344.97;4864415;29;19939;-68
2021/12/11 07:41:07;;;;;;;;;;;;;;;8.59;100.00;97345.03;4882080;29;19939;-68
2021/12/11 07:43:35;;;;;;;;;;;;;;;9.95;100.00;97346.19;4881930;29;19928;-68
2021/12/11 07:46:03;;;;;;;;;;;;;;;11.25;100.00;97355.53;4882762;29;19934;-68
2021/12/11 07:48:30;;;;;;;;;;;;;;;13.18;94.00;97366.09;4882681;29;19936;-68
2021/12/11 07:50:58;;;;;;;;;;;;;;;14.80;79.82;97372.91;4882266;29;20029;-68
2021/12/11 07:53:25;;;;;;;;;;;;;;;16.34;72.27;97381.03;4882887;29;19939;-68
2021/12/11 07:55:53;;;;;;;;;;;;;;;17.82;63.22;97377.28;4866500;29;19932;-68
2021/12/11 07:58:20;;;;;;;;;;;;;;;19.00;56.97;97392.22;4882660;29;20340;-68
2021/12/11 08:00:49;;;;;;;;;;;;;;;20.10;47.79;97399.00;4882374;29;19937;-68
2021/12/11 08:03:18;;;;;;;;;;;;;;;21.34;44.95;97407.41;4882518;29;20356;-68
2021/12/11 08:05:46;;;;;;;;;;;;;;;21.51;41.03;97410.53;4882652;29;19928;-68
2021/12/11 08:08:15;;;;;;;;;;;;;;;21.78;39.04;97415.09;4882632;29;19931;-68
2021/12/11 08:10:45;;;;;;;;;;;;;;;21.47;40.25;97427.78;4882337;29;20374;-69
2021/12/11 08:13:13;;;;;;;;;;;;;;;21.38;39.32;97438.47;4882180;29;19935;-69
2021/12/11 08:15:41;;;;;;;;;;;;;;;20.78;39.64;97436.06;4882272;29;19935;-68
2021/12/11 08:18:09;;;;;;;;;;;;;;;20.20;40.58;97436.63;4881944;29;19942;-68
2021/12/11 08:20:38;;;;;;;;;;;;;;;18.58;42.63;97445.16;4881786;29;19963;-68
2021/12/11 08:23:05;;;;;;;;;;;;;;;17.34;46.25;97440.22;4878002;29;20309;-68
2021/12/11 08:25:33;;;;;;;;;;;;;;;16.48;49.29;97450.28;4880467;29;19936;-68
2021/12/11 08:28:01;;;;;;;;;;;;;;;16.02;51.09;97449.06;4883882;29;19931;-68
2021/12/11 08:30:32;;;;;;;;;;;;;;;15.24;52.45;97450.00;4879083;29;19943;-68
2021/12/11 08:33:00;;;;;;;;;;;;;;;14.84;54.69;97463.69;4873504;29;19968;-68
2021/12/11 08:35:27;;;;;;;;;;;;;;;14.94;53.12;97460.53;4871272;29;19951;-68
2021/12/11 08:37:55;;;;;;;;;;;;;;;14.89;52.72;97466.72;4879497;29;19956;-68
2021/12/11 08:40:25;;;;;;;;;;;;;;;14.38;54.90;97476.22;4872581;29;20533;-68
2021/12/11 08:42:52;;;;;;;;;;;;;;;13.57;58.18;97478.28;4874611;29;20633;-68
2021/12/11 08:45:25;;;;;;;;;;;;;;;12.63;63.57;97488.31;4875006;29;20213;-68
2021/12/11 08:47:55;;;;;;;;;;;;;;;11.06;65.84;97488.53;4871273;29;19973;-68
2021/12/11 08:50:24;;;;;;;;;;;;;;;10.85;71.64;97488.03;4878717;29;19982;-68
2021/12/11 08:52:53;;;;;;;;;;;;;;;10.39;70.65;97492.16;4875861;29;20356;-68
2021/12/11 08:55:22;;;;;;;;;;;;;;;9.85;75.52;97490.31;4879597;29;19931;-69
2021/12/11 08:57:50;;;;;;;;;;;;;;;9.43;79.60;97499.81;4886329;29;20396;-69
2021/12/11 09:00:23;;;;;;;;;;;;;;;9.05;78.55;97498.06;4885819;29;20351;-69
2021/12/11 09:03:11;;;;;;;;;;;;;;;9.05;81.71;97500.84;4881326;29;19952;-69
2021/12/11 09:05:46;;;;;;;;;;;;;;;8.76;86.13;97510.56;4891618;29;20005;-69
2021/12/11 09:08:16;;;;;;;;;;;;;;;8.48;86.71;97509.50;4877213;29;19932;-69
2021/12/11 09:11:07;;;;;;;;;;;;;;;8.41;90.11;97519.84;4872643;29;19929;-69
2021/12/11 09:13:53;;;;;;;;;;;;;;;8.19;90.34;97529.44;4868535;29;19943;-69
2021/12/11 09:16:23;;;;;;;;;;;;;;;8.08;88.32;97537.00;4870499;29;19932;-70
2021/12/11 09:18:51;;;;;;;;;;;;;;;8.00;88.06;97538.19;4881944;29;19970;-67
2021/12/11 09:21:28;;;;;;;;;;;;;;;8.08;89.68;97548.94;4889856;29;19936;-69
2021/12/11 09:24:13;;;;;;;;;;;;;;;7.99;93.08;97551.34;4879488;29;20585;-69
2021/12/11 09:26:54;;;;;;;;;;;;;;;8.02;94.63;97555.31;4899504;29;19962;-69
2021/12/11 09:29:36;;;;;;;;;;;;;;;8.03;93.30;97562.44;4899896;29;20387;-69
2021/12/11 09:32:16;;;;;;;;;;;;;;;7.87;95.46;97568.44;4900099;29;19938;-69
2021/12/11 09:35:04;;;;;;;;;;;;;;;7.83;94.41;97568.41;4899707;29;19935;-69
2021/12/11 09:37:32;;;;;;;;;;;;;;;7.94;97.22;97568.44;4899104;29;19932;-70
2021/12/11 09:40:29;;;;;;;;;;;;;;;8.04;97.99;97578.78;4899299;29;19942;-69
2021/12/11 09:42:56;;;;;;;;;;;;;;;8.01;94.54;97579.56;4863704;29;19936;-69
2021/12/11 09:45:25;;;;;;;;;;;;;;;8.25;92.65;97584.31;4879021;29;19928;-69
2021/12/11 09:47:56;;;;;;;;;;;;;;;8.18;97.00;97580.75;4880813;29;19951;-69
2021/12/11 09:50:31;;;;;;;;;;;;;;;8.21;96.99;97591.09;4881131;29;19963;-69
2021/12/11 09:53:00;;;;;;;;;;;;;;;8.24;100.00;97585.50;4879537;29;20455;-69
2021/12/11 09:55:31;;;;;;;;;;;;;;;8.14;100.00;97591.09;4881057;29;19931;-69
2021/12/11 09:58:00;;;;;;;;;;;;;;;8.08;100.00;97592.69;4880190;29;19931;-69
2021/12/11 10:00:32;;;;;;;;;;;;;;;8.18;96.82;97592.69;4880730;29;19939;-69
2021/12/11 10:03:00;;;;;;;;;;;;;;;8.25;96.02;97592.66;4865429;29;19940;-69
2021/12/11 10:05:36;;;;;;;;;;;;;;;8.51;92.17;97602.59;4879882;29;20229;-69
2021/12/11 10:10:52;;;;;;;;;;;;;;;8.79;91.57;97610.09;4880705;29;19943;-69
2021/12/11 10:13:20;;;;;;;;;;;;;;;8.97;88.00;97606.06;4880389;29;19943;-69
2021/12/11 10:15:48;;;;;;;;;;;;;;;9.00;88.17;97616.41;4880016;29;19935;-69
2021/12/11 10:18:19;;;;;;;;;;;;;;;9.13;83.81;97623.13;4879494;29;19932;-69
2021/12/11 10:20:50;;;;;;;;;;;;;;;9.24;81.98;97625.88;4879883;29;19928;-69
2021/12/11 10:23:20;;;;;;;;;;;;;;;9.30;82.35;97635.41;4864342;29;19939;-69
2021/12/11 10:25:48;;;;;;;;;;;;;;;9.35;81.67;97636.97;4880498;29;20372;-69
2021/12/11 10:28:18;;;;;;;;;;;;;;;9.21;84.70;97644.22;4880560;29;19928;-69
2021/12/11 10:30:48;;;;;;;;;;;;;;;9.29;85.95;97639.41;4879676;29;19932;-69
2021/12/11 10:33:18;;;;;;;;;;;;;;;9.31;89.55;97655.72;4880186;29;19928;-69
2021/12/11 10:35:47;;;;;;;;;;;;;;;9.33;86.65;97656.91;4880119;29;19939;-69
2021/12/11 10:38:16;;;;;;;;;;;;;;;9.26;84.21;97654.16;4880343;29;19935;-69
2021/12/11 10:40:46;;;;;;;;;;;;;;;9.33;83.30;97650.53;4879884;29;19939;-69
2021/12/11 10:43:17;;;;;;;;;;;;;;;9.36;78.42;97649.72;4879823;29;20237;-69
2021/12/11 10:45:46;;;;;;;;;;;;;;;9.38;73.70;97653.72;4879983;29;19931;-69
2021/12/11 10:48:15;;;;;;;;;;;;;;;9.35;73.26;97645.34;4879594;29;19936;-69
2021/12/11 10:50:46;;;;;;;;;;;;;;;9.46;74.72;97660.84;4880833;29;19932;-69
2021/12/11 10:53:16;;;;;;;;;;;;;;;9.26;80.59;97651.38;4883830;29;20320;-69
2021/12/11 10:55:43;;;;;;;;;;;;;;;9.20;87.81;97658.56;4883086;29;19936;-69
2021/12/11 10:58:15;;;;;;;;;;;;;;;9.16;91.48;97668.94;4883629;29;20247;-69
2021/12/11 11:00:46;;;;;;;;;;;;;;;9.11;88.83;97669.34;4883399;29;19928;-69
2021/12/11 11:03:15;;;;;;;;;;;;;;;9.19;88.70;97654.19;4878032;29;20387;-69
2021/12/11 11:05:43;;;;;;;;;;;;;;;9.07;91.93;97663.78;4883041;29;19928;-69
2021/12/11 11:08:10;;;;;;;;;;;;;;;9.08;96.65;97662.59;4883103;29;19966;-69
2021/12/11 11:10:41;;;;;;;;;;;;;;;9.08;97.72;97670.16;4882708;29;19928;-69
2021/12/11 11:13:11;;;;;;;;;;;;;;;9.06;99.29;97675.34;4882847;29;19932;-69
2021/12/11 11:15:39;;;;;;;;;;;;;;;9.06;100.00;97680.91;4883281;29;19931;-69
2021/12/11 11:18:07;;;;;;;;;;;;;;;9.01;100.00;97673.78;4883072;29;19932;-69
2021/12/11 11:20:36;;;;;;;;;;;;;;;8.99;99.93;97670.59;4883364;29;19932;-68
2021/12/11 11:23:04;;;;;;;;;;;;;;;9.02;99.67;97666.19;4882853;29;19938;-69
2021/12/11 11:25:33;;;;;;;;;;;;;;;8.92;100.00;97667.03;4883179;29;19938;-69
2021/12/11 11:28:03;;;;;;;;;;;;;;;8.86;100.00;97672.22;4882754;29;19955;-69
2021/12/11 11:30:36;;;;;;;;;;;;;;;8.84;100.00;97668.22;4883002;29;19967;-69
2021/12/11 11:33:06;;;;;;;;;;;;;;;8.82;100.00;97674.22;4869631;29;19932;-69
2021/12/11 11:35:38;;;;;;;;;;;;;;;8.86;100.00;97665.81;4883416;29;19928;-69
2021/12/11 11:38:07;;;;;;;;;;;;;;;8.89;100.00;97677.00;4883293;29;19932;-69
2021/12/11 11:40:36;;;;;;;;;;;;;;;8.80;100.00;97689.75;4882357;29;19943;-69
2021/12/11 11:43:05;;;;;;;;;;;;;;;8.84;100.00;97685.75;4883100;29;19935;-69
2021/12/11 11:45:33;;;;;;;;;;;;;;;8.79;100.00;97686.16;4882498;29;19932;-69
2021/12/11 11:48:00;;;;;;;;;;;;;;;8.87;100.00;97689.75;4882237;29;19939;-69
2021/12/11 11:50:30;;;;;;;;;;;;;;;8.94;100.00;97684.94;4882895;29;19928;-69
2021/12/11 11:52:58;;;;;;;;;;;;;;;8.97;100.00;97683.34;4864945;29;19943;-69
2021/12/11 11:55:30;;;;;;;;;;;;;;;8.97;100.00;97688.91;4867546;29;19928;-69
2021/12/11 11:57:57;;;;;;;;;;;;;;;8.95;100.00;97691.31;4877521;29;19932;-69
2021/12/11 12:00:28;;;;;;;;;;;;;;;8.94;100.00;97686.94;4870431;29;19932;-72
2021/12/11 12:02:56;;;;;;;;;;;;;;;8.86;100.00;97686.16;4877100;29;19939;-69
2021/12/11 12:05:24;;;;;;;;;;;;;;;8.77;100.00;97684.97;4871731;29;19939;-70
2021/12/11 12:07:51;;;;;;;;;;;;;;;8.78;100.00;97692.16;4877994;29;19943;-71
2021/12/11 12:10:20;;;;;;;;;;;;;;;8.76;100.00;97694.53;4872599;29;19932;-70
2021/12/11 12:12:48;;;;;;;;;;;;;;;8.62;100.00;97694.53;4866340;29;19943;-70
2021/12/11 12:15:18;;;;;;;;;;;;;;;8.57;100.00;97692.97;4875296;29;19939;-70
2021/12/11 12:17:46;;;;;;;;;;;;;;;8.57;100.00;97696.53;4883442;29;19938;-70
2021/12/11 12:20:15;;;;;;;;;;;;;;;8.57;100.00;97699.34;4878152;29;19931;-69
2021/12/11 12:22:43;;;;;;;;;;;;;;;8.58;100.00;97695.34;4880894;29;19932;-70
2021/12/11 12:25:11;;;;;;;;;;;;;;;8.57;100.00;97699.34;4877281;29;19939;-70
2021/12/11 12:27:39;;;;;;;;;;;;;;;8.63;100.00;97696.94;4874153;29;19932;-70
2021/12/11 12:30:09;;;;;;;;;;;;;;;8.54;100.00;97699.31;4876047;29;19931;-71
2021/12/11 12:32:37;;;;;;;;;;;;;;;8.53;100.00;97701.31;4883985;29;19931;-70
2021/12/11 12:35:07;;;;;;;;;;;;;;;8.52;100.00;97702.53;4881588;29;19931;-70
2021/12/11 12:37:35;;;;;;;;;;;;;;;8.57;100.00;97704.09;4878792;29;20221;-70
2021/12/11 12:40:05;;;;;;;;;;;;;;;8.37;100.00;97700.94;4880859;29;20225;-78
2021/12/11 12:42:37;;;;;;;;;;;;;;;8.20;100.00;97707.25;4871059;29;19942;-70
2021/12/11 12:45:12;;;;;;;;;;;;;;;8.14;100.00;97714.41;4867278;29;19935;-70
2021/12/11 12:47:42;;;;;;;;;;;;;;;8.11;100.00;97712.41;4869300;29;19928;-69
2021/12/11 12:50:22;;;;;;;;;;;;;;;7.86;100.00;97715.16;4872938;29;19936;-70
2021/12/11 12:52:50;;;;;;;;;;;;;;;7.75;100.00;97724.69;4871110;29;20257;-71
2021/12/11 12:55:22;;;;;;;;;;;;;;;7.91;100.00;97733.47;4892060;29;19948;-71
2021/12/11 12:57:52;;;;;;;;;;;;;;;8.10;100.00;97738.66;4881949;29;19931;-70
2021/12/11 13:00:22;;;;;;;;;;;;;;;8.08;100.00;97729.91;4881763;29;19938;-69
2021/12/11 13:02:51;;;;;;;;;;;;;;;7.92;100.00;97729.50;4878873;29;19932;-69
2021/12/11 13:05:19;;;;;;;;;;;;;;;8.11;100.00;97743.06;4880065;29;19943;-70
2021/12/11 13:08:01;;;;;;;;;;;;;;;8.02;100.00;97736.28;4876339;29;19939;-70
2021/12/11 13:10:32;;;;;;;;;;;;;;;7.92;100.00;97740.63;4883705;29;19932;-68
2021/12/11 13:13:00;;;;;;;;;;;;;;;7.91;100.00;97739.03;4875182;29;20349;-69
2021/12/11 13:15:30;;;;;;;;;;;;;;;7.68;100.00;97749.66;4875141;29;20489;-70
2021/12/11 13:17:58;;;;;;;;;;;;;;;7.50;100.00;97748.81;4878378;29;19938;-69
2021/12/11 13:20:30;;;;;;;;;;;;;;;7.53;100.00;97750.81;4876071;29;19938;-69
2021/12/11 13:22:57;;;;;;;;;;;;;;;7.45;100.00;97758.34;4876440;29;20640;-69
2021/12/11 13:25:28;;;;;;;;;;;;;;;7.33;100.00;97755.91;4875975;29;19932;-70
2021/12/11 13:27:59;;;;;;;;;;;;;;;7.19;100.00;97770.50;4875359;29;19939;-71
2021/12/11 13:30:29;;;;;;;;;;;;;;;7.17;100.00;97767.31;4878722;29;19931;-70
2021/12/11 13:32:57;;;;;;;;;;;;;;;7.17;100.00;97778.44;4876936;29;19928;-70
2021/12/11 13:35:26;;;;;;;;;;;;;;;7.15;100.00;97777.25;4877887;29;19957;-69
2021/12/11 13:37:55;;;;;;;;;;;;;;;7.10;100.00;97772.03;4880314;29;19990;-70
2021/12/11 13:40:23;;;;;;;;;;;;;;;7.06;100.00;97774.81;4878693;29;19932;-71
2021/12/11 13:42:51;;;;;;;;;;;;;;;7.11;100.00;97782.78;4877907;29;19943;-71
2021/12/11 13:45:21;;;;;;;;;;;;;;;7.03;100.00;97783.13;4877535;29;19939;-70
2021/12/11 13:47:49;;;;;;;;;;;;;;;6.87;100.00;97786.19;4879232;29;20208;-69
2021/12/11 13:50:19;;;;;;;;;;;;;;;6.79;100.00;97779.00;4878976;29;20202;-69
2021/12/11 13:52:46;;;;;;;;;;;;;;;6.80;100.00;97786.13;4880519;29;19931;-69
2021/12/11 13:55:14;;;;;;;;;;;;;;;6.67;100.00;97792.38;4867245;29;20344;-70
2021/12/11 13:57:58;;;;;;;;;;;;;;;6.66;100.00;97785.22;4864076;29;20198;-69
2021/12/11 14:00:27;;;;;;;;;;;;;;;6.61;100.00;97789.97;4862663;29;19935;-69
2021/12/11 14:03:07;;;;;;;;;;;;;;;6.61;100.00;97794.72;4869767;29;19935;-69
2021/12/11 14:05:34;;;;;;;;;;;;;;;6.55;100.00;97799.03;4881001;29;19932;-69
2021/12/11 14:08:06;;;;;;;;;;;;;;;6.63;100.00;97806.22;4880523;29;19966;-69
2021/12/11 14:10:35;;;;;;;;;;;;;;;6.48;100.00;97810.84;4877290;29;19928;-68
2021/12/11 14:13:05;;;;;;;;;;;;;;;6.45;100.00;97819.97;4873664;29;19928;-69
2021/12/11 14:15:33;;;;;;;;;;;;;;;6.48;100.00;97815.63;4877459;29;19928;-69
2021/12/11 14:18:00;;;;;;;;;;;;;;;6.39;100.00;97821.50;4871177;29;19932;-69
2021/12/11 14:20:31;;;;;;;;;;;;;;;6.24;100.00;97830.06;4873902;29;19939;-69
2021/12/11 14:22:59;;;;;;;;;;;;;;;6.33;100.00;97825.00;4872424;29;19943;-69
2021/12/11 14:25:31;;;;;;;;;;;;;;;6.24;100.00;97822.53;4880809;29;19939;-69
2021/12/11 14:28:00;;;;;;;;;;;;;;;6.12;100.00;97822.78;4884206;29;19931;-69
2021/12/11 14:30:28;;;;;;;;;;;;;;;6.07;100.00;97819.56;4875327;29;19939;-69
2021/12/11 14:32:56;;;;;;;;;;;;;;;6.04;100.00;97826.66;4881611;29;19939;-73
2021/12/11 14:35:26;;;;;;;;;;;;;;;5.99;100.00;97832.59;4881606;29;19931;-70
2021/12/11 14:37:54;;;;;;;;;;;;;;;5.97;100.00;97831.38;4877930;29;20360;-71
2021/12/11 14:40:23;;;;;;;;;;;;;;;5.92;100.00;97838.03;4875554;29;19940;-71
2021/12/11 14:42:50;;;;;;;;;;;;;;;5.89;100.00;97852.69;4873972;29;19943;-73
2021/12/11 14:45:20;;;;;;;;;;;;;;;5.80;100.00;97852.91;4878031;29;19961;-71
2021/12/11 14:47:49;;;;;;;;;;;;;;;5.69;100.00;97859.50;4876691;29;20517;-71
2021/12/11 14:50:19;;;;;;;;;;;;;;;5.59;100.00;97860.16;4883655;29;20348;-71
2021/12/11 14:52:46;;;;;;;;;;;;;;;5.58;100.00;97859.38;4876054;29;20347;-77
2021/12/11 14:55:22;;;;;;;;;;;;;;;5.54;100.00;97869.63;4876162;29;19931;-72
2021/12/11 14:57:49;;;;;;;;;;;;;;;5.51;100.00;97866.78;4882981;29;19934;-75
2021/12/11 15:00:19;;;;;;;;;;;;;;;5.45;100.00;97869.09;4883358;29;19959;-72
2021/12/11 15:02:49;;;;;;;;;;;;;;;5.33;100.00;97881.19;4883623;29;19931;-73
2021/12/11 15:05:21;;;;;;;;;;;;;;;5.27;100.00;97881.91;4872765;29;19939;-74
2021/12/11 15:07:49;;;;;;;;;;;;;;;5.19;100.00;97886.53;4881866;29;19931;-71
2021/12/11 15:10:19;;;;;;;;;;;;;;;5.19;100.00;97886.53;4893378;29;19944;-72
2021/12/11 15:12:53;;;;;;;;;;;;;;;5.21;100.00;97891.69;4882592;29;19932;-72
2021/12/11 15:15:20;;;;;;;;;;;;;;;5.23;100.00;97894.91;4888128;29;19931;-72
2021/12/11 15:17:47;;;;;;;;;;;;;;;5.24;100.00;97902.84;4886185;29;19928;-72
2021/12/11 15:20:23;;;;;;;;;;;;;;;5.25;100.00;97906.41;4877764;29;19928;-72
2021/12/11 15:22:51;;;;;;;;;;;;;;;5.19;100.00;97907.91;4884194;29;19935;-72
2021/12/11 15:25:19;;;;;;;;;;;;;;;5.08;100.00;97906.94;4881466;29;19986;-73
2021/12/11 15:27:47;;;;;;;;;;;;;;;4.96;100.00;97899.63;4879041;29;19932;-72
2021/12/11 15:30:17;;;;;;;;;;;;;;;4.93;100.00;97903.13;4883029;29;19932;-73
2021/12/11 15:32:46;;;;;;;;;;;;;;;4.94;100.00;97906.72;4881736;29;19928;-72
2021/12/11 15:35:15;;;;;;;;;;;;;;;4.93;100.00;97914.22;4882570;29;19940;-74
2021/12/11 15:37:44;;;;;;;;;;;;;;;4.90;100.00;97925.22;4875361;29;20645;-72
2021/12/11 15:40:13;;;;;;;;;;;;;;;4.89;100.00;97923.66;4882181;29;19939;-72
2021/12/11 15:42:42;;;;;;;;;;;;;;;4.86;100.00;97925.19;4882487;29;19939;-72
2021/12/11 15:45:11;;;;;;;;;;;;;;;4.85;100.00;97918.03;4881251;29;19928;-73
2021/12/11 15:47:38;;;;;;;;;;;;;;;4.82;100.00;97920.75;4875910;29;19939;-73
2021/12/11 15:50:10;;;;;;;;;;;;;;;4.74;100.00;97919.03;4885252;29;19932;-73
2021/12/11 15:52:37;;;;;;;;;;;;;;;4.68;100.00;97918.50;4882313;29;19958;-73
2021/12/11 15:55:05;;;;;;;;;;;;;;;4.63;100.00;97922.41;4881996;29;19928;-73
2021/12/11 15:57:33;;;;;;;;;;;;;;;4.65;100.00;97922.81;4881706;29;19928;-73
2021/12/11 16:00:01;;;;;;;;;;;;;;;4.60;100.00;97916.78;4882514;29;19939;-73
2021/12/11 16:02:38;;;;;;;;;;;;;;;4.58;100.00;97931.00;4883058;29;19939;-73
2021/12/11 16:05:06;;;;;;;;;;;;;;;4.59;100.00;97932.63;4881779;29;20221;-73
2021/12/11 16:07:34;;;;;;;;;;;;;;;4.58;100.00;97939.31;4881824;29;20368;-73
2021/12/11 16:10:04;;;;;;;;;;;;;;;4.55;100.00;97933.69;4882020;29;19932;-73
2021/12/11 16:12:32;;;;;;;;;;;;;;;4.53;100.00;97936.03;4882078;29;20006;-73
2021/12/11 16:15:02;;;;;;;;;;;;;;;4.52;100.00;97942.75;4880260;29;20233;-73
2021/12/11 16:17:30;;;;;;;;;;;;;;;4.49;100.00;97947.06;4878071;29;19928;-73
2021/12/11 16:20:01;;;;;;;;;;;;;;;4.50;100.00;97948.63;4879595;29;19962;-73
2021/12/11 16:22:32;;;;;;;;;;;;;;;4.49;100.00;97947.06;4881721;29;20233;-72
2021/12/11 16:25:07;;;;;;;;;;;;;;;4.53;100.00;97947.91;4881129;29;19932;-73
2021/12/11 16:27:34;;;;;;;;;;;;;;;4.49;100.00;97949.81;4871571;29;19955;-73
2021/12/11 16:30:06;;;;;;;;;;;;;;;4.48;100.00;97955.72;4881272;29;19959;-74
2021/12/11 16:32:34;;;;;;;;;;;;;;;4.50;100.00;97965.25;4882024;29;20430;-74
2021/12/11 16:35:06;;;;;;;;;;;;;;;4.52;100.00;97968.44;4879586;29;19928;-73
2021/12/11 16:37:35;;;;;;;;;;;;;;;4.49;100.00;97960.91;4873829;29;19943;-74
2021/12/11 16:40:05;;;;;;;;;;;;;;;4.39;100.00;97975.31;4864840;29;19987;-74
2021/12/11 16:42:36;;;;;;;;;;;;;;;4.35;100.00;97974.44;4878752;29;19928;-73
2021/12/11 16:45:09;;;;;;;;;;;;;;;4.30;100.00;97973.94;4881801;29;19928;-74
2021/12/11 16:47:36;;;;;;;;;;;;;;;4.26;100.00;97973.06;4877404;29;19932;-74
2021/12/11 16:50:06;;;;;;;;;;;;;;;4.25;100.00;97972.28;4870452;29;19932;-73
2021/12/11 16:52:33;;;;;;;;;;;;;;;4.22;100.00;97986.03;4885963;29;20609;-74
2021/12/11 16:55:01;;;;;;;;;;;;;;;4.22;100.00;97989.59;4882238;29;19931;-72
2021/12/11 16:57:28;;;;;;;;;;;;;;;4.27;100.00;97999.59;4891161;29;19932;-72
2021/12/11 16:59:55;;;;;;;;;;;;;;;4.31;100.00;98003.22;4879417;29;19932;-73
2021/12/11 17:02:25;;;;;;;;;;;;;;;4.33;100.00;98003.66;4852074;29;19929;-73
2021/12/11 17:04:53;;;;;;;;;;;;;;;4.29;100.00;97998.06;4871323;29;20644;-73
2021/12/11 17:07:20;;;;;;;;;;;;;;;4.28;100.00;98001.97;4875452;29;20306;-73
2021/12/11 17:09:49;;;;;;;;;;;;;;;4.27;100.00;98010.66;4870888;29;19927;-72
2021/12/11 17:12:19;;;;;;;;;;;;;;;4.26;100.00;98009.03;4881730;29;19936;-72
2021/12/11 17:14:49;;;;;;;;;;;;;;;4.22;100.00;98025.59;4880226;29;20411;-73
2021/12/11 17:17:16;;;;;;;;;;;;;;;4.20;100.00;98022.38;4881365;29;19932;-73
2021/12/11 17:19:46;;;;;;;;;;;;;;;4.19;100.00;98028.25;4881961;29;19939;-74
2021/12/11 17:22:14;;;;;;;;;;;;;;;4.02;100.00;98021.19;4878438;29;19932;-72
2021/12/11 17:24:45;;;;;;;;;;;;;;;3.89;100.00;98039.88;4881002;29;20237;-72
2021/12/11 17:27:13;;;;;;;;;;;;;;;3.85;100.00;98040.94;4870554;29;19928;-74
2021/12/11 17:29:41;;;;;;;;;;;;;;;3.82;100.00;98045.22;4880405;29;19931;-74
2021/12/11 17:32:08;;;;;;;;;;;;;;;3.79;100.00;98047.94;4880964;29;19928;-73
2021/12/11 17:34:36;;;;;;;;;;;;;;;3.77;100.00;98051.03;4883973;29;19936;-74
2021/12/11 17:37:03;;;;;;;;;;;;;;;3.83;100.00;98049.63;4880154;29;19932;-74
2021/12/11 17:39:31;;;;;;;;;;;;;;;3.77;100.00;98051.03;4872847;29;20509;-72
2021/12/11 17:42:00;;;;;;;;;;;;;;;3.76;100.00;98059.72;4874008;29;19931;-73
2021/12/11 17:44:31;;;;;;;;;;;;;;;3.75;100.00;98060.84;4879443;29;19932;-72
2021/12/11 17:46:59;;;;;;;;;;;;;;;3.76;100.00;98056.94;4872593;29;20356;-68
2021/12/11 17:49:27;;;;;;;;;;;;;;;3.69;100.00;98063.09;4871883;29;19938;-69
2021/12/11 17:51:55;;;;;;;;;;;;;;;3.64;100.00;98068.91;4868169;29;19932;-69
2021/12/11 17:54:23;;;;;;;;;;;;;;;3.65;100.00;98067.72;4871221;29;19939;-73
2021/12/11 17:56:51;;;;;;;;;;;;;;;3.68;100.00;98074.50;4875090;29;19939;-71
2021/12/11 17:59:24;;;;;;;;;;;;;;;3.67;100.00;98075.66;4871443;29;19958;-72
2021/12/11 18:01:56;;;;;;;;;;;;;;;3.67;100.00;98084.75;4870438;29;20241;-73
2021/12/11 18:04:29;;;;;;;;;;;;;;;3.65;100.00;98095.38;4879525;29;19936;-73
2021/12/11 18:07:02;;;;;;;;;;;;;;;3.64;100.00;98088.25;4873526;29;19931;-75
2021/12/11 18:09:37;;;;;;;;;;;;;;;3.65;100.00;98100.09;4876505;29;19935;-76
2021/12/11 18:12:37;;;;;;;;;;;;;;;3.62;100.00;98098.84;4879844;29;20226;-75
2021/12/11 18:15:19;;;;;;;;;;;;;;;3.52;100.00;98099.38;4879837;29;19932;-76
2021/12/11 18:17:55;;;;;;;;;;;;;;;3.51;100.00;98105.28;4862230;29;19932;-77
2021/12/11 18:20:28;;;;;;;;;;;;;;;3.52;100.00;98115.97;4874707;29;19931;-73